sensor_id;sensor_type;location;lat;lon;timestamp;pressure;altitude;pressure_sealevel;temperature;humidity
50292;BME280;36190;54.980;73.388;2023-04-25T00:02:02;101167.13;;;4.08;42.14
50292;BME280;36190;54.980;73.388;2023-04-25T00:04:29;101163.44;;;4.11;41.91
50292;BME280;36190;54.980;73.388;2023-04-25T00:06:59;101165.13;;;4.12;41.88
50292;BME280;36190;54.980;73.388;2023-04-25T00:09:27;101161.63;;;4.11;41.82
50292;BME280;36190;54.980;73.388;2023-04-25T00:11:56;101160.47;;;4.16;41.82
50292;BME280;36190;54.980;73.388;2023-04-25T00:14:24;101166.50;;;4.18;41.70
50292;BME280;36190;54.980;73.388;2023-04-25T00:16:51;101168.91;;;4.21;41.77
50292;BME280;36190;54.980;73.388;2023-04-25T00:19:19;101173.03;;;4.25;41.72
50292;BME280;36190;54.980;73.388;2023-04-25T00:21:47;101181.50;;;4.30;41.77
50292;BME280;36190;54.980;73.388;2023-04-25T00:24:25;101181.25;;;4.33;41.80
50292;BME280;36190;54.980;73.388;2023-04-25T00:26:52;101176.84;;;4.34;41.65
50292;BME280;36190;54.980;73.388;2023-04-25T00:29:21;101178.53;;;4.35;41.62
50292;BME280;36190;54.980;73.388;2023-04-25T00:31:49;101190.56;;;4.39;41.59
50292;BME280;36190;54.980;73.388;2023-04-25T00:34:16;101190.22;;;4.44;41.60
50292;BME280;36190;54.980;73.388;2023-04-25T00:36:44;101178.69;;;4.45;41.59
50292;BME280;36190;54.980;73.388;2023-04-25T00:39:13;101175.13;;;4.46;41.52
50292;BME280;36190;54.980;73.388;2023-04-25T00:41:41;101178.28;;;4.51;41.42
50292;BME280;36190;54.980;73.388;2023-04-25T00:44:30;101182.69;;;4.63;41.58
50292;BME280;36190;54.980;73.388;2023-04-25T00:46:59;101182.56;;;4.65;41.23
50292;BME280;36190;54.980;73.388;2023-04-25T00:49:50;101188.59;;;4.67;41.36
50292;BME280;36190;54.980;73.388;2023-04-25T00:52:37;101197.50;;;4.66;41.29
50292;BME280;36190;54.980;73.388;2023-04-25T00:55:14;101191.88;;;4.71;41.39
50292;BME280;36190;54.980;73.388;2023-04-25T00:57:42;101188.47;;;4.68;41.16
50292;BME280;36190;54.980;73.388;2023-04-25T01:00:26;101193.63;;;4.83;41.16
50292;BME280;36190;54.980;73.388;2023-04-25T01:03:00;101190.03;;;4.84;40.89
50292;BME280;36190;54.980;73.388;2023-04-25T01:05:28;101196.44;;;4.93;40.90
50292;BME280;36190;54.980;73.388;2023-04-25T01:08:12;101192.06;;;5.05;40.82
50292;BME280;36190;54.980;73.388;2023-04-25T01:10:40;101202.06;;;5.13;40.53
50292;BME280;36190;54.980;73.388;2023-04-25T01:13:09;101202.34;;;5.21;40.37
50292;BME280;36190;54.980;73.388;2023-04-25T01:15:53;101204.94;;;5.34;40.44
50292;BME280;36190;54.980;73.388;2023-04-25T01:18:22;101197.84;;;5.34;40.23
50292;BME280;36190;54.980;73.388;2023-04-25T01:21:25;101200.88;;;5.41;40.09
50292;BME280;36190;54.980;73.388;2023-04-25T01:24:15;101195.25;;;5.46;39.95
50292;BME280;36190;54.980;73.388;2023-04-25T01:26:44;101203.69;;;5.51;39.82
50292;BME280;36190;54.980;73.388;2023-04-25T01:29:33;101202.75;;;5.63;39.62
50292;BME280;36190;54.980;73.388;2023-04-25T01:32:15;101203.38;;;5.67;39.63
50292;BME280;36190;54.980;73.388;2023-04-25T01:34:42;101199.53;;;5.71;39.65
50292;BME280;36190;54.980;73.388;2023-04-25T01:37:16;101201.84;;;5.76;39.46
50292;BME280;36190;54.980;73.388;2023-04-25T01:39:44;101203.06;;;5.83;39.50
50292;BME280;36190;54.980;73.388;2023-04-25T01:42:15;101214.03;;;5.90;39.39
50292;BME280;36190;54.980;73.388;2023-04-25T01:44:43;101228.72;;;5.94;39.38
50292;BME280;36190;54.980;73.388;2023-04-25T01:47:14;101228.06;;;6.03;39.32
50292;BME280;36190;54.980;73.388;2023-04-25T01:49:44;101225.91;;;6.20;39.20
50292;BME280;36190;54.980;73.388;2023-04-25T01:52:16;101227.38;;;6.36;39.06
50292;BME280;36190;54.980;73.388;2023-04-25T01:54:45;101222.53;;;6.41;39.10
50292;BME280;36190;54.980;73.388;2023-04-25T01:57:14;101208.09;;;6.45;38.90
50292;BME280;36190;54.980;73.388;2023-04-25T01:59:49;101206.88;;;6.49;39.10
50292;BME280;36190;54.980;73.388;2023-04-25T02:02:17;101210.97;;;6.53;39.01
50292;BME280;36190;54.980;73.388;2023-04-25T02:04:44;101215.78;;;6.59;38.93
50292;BME280;36190;54.980;73.388;2023-04-25T02:07:16;101211.44;;;6.70;38.77
50292;BME280;36190;54.980;73.388;2023-04-25T02:09:43;101215.28;;;6.77;38.70
50292;BME280;36190;54.980;73.388;2023-04-25T02:12:14;101202.75;;;6.79;38.77
50292;BME280;36190;54.980;73.388;2023-04-25T02:14:41;101207.44;;;6.87;38.69
50292;BME280;36190;54.980;73.388;2023-04-25T02:17:15;101204.03;;;6.96;38.70
50292;BME280;36190;54.980;73.388;2023-04-25T02:19:43;101199.78;;;7.05;38.57
50292;BME280;36190;54.980;73.388;2023-04-25T02:22:13;101208.69;;;7.15;38.43
50292;BME280;36190;54.980;73.388;2023-04-25T02:24:42;101194.66;;;7.25;38.38
50292;BME280;36190;54.980;73.388;2023-04-25T02:27:19;101204.25;;;7.37;38.34
50292;BME280;36190;54.980;73.388;2023-04-25T02:29:46;101199.84;;;7.48;38.32
50292;BME280;36190;54.980;73.388;2023-04-25T02:32:29;101196.38;;;7.68;38.44
50292;BME280;36190;54.980;73.388;2023-04-25T02:35:09;101196.75;;;7.85;37.95
50292;BME280;36190;54.980;73.388;2023-04-25T02:37:43;101190.66;;;7.94;37.63
50292;BME280;36190;54.980;73.388;2023-04-25T02:40:13;101190.72;;;8.04;37.70
50292;BME280;36190;54.980;73.388;2023-04-25T02:42:40;101193.88;;;8.19;37.49
50292;BME280;36190;54.980;73.388;2023-04-25T02:45:09;101181.19;;;8.33;37.25
50292;BME280;36190;54.980;73.388;2023-04-25T02:47:36;101177.44;;;8.45;36.96
50292;BME280;36190;54.980;73.388;2023-04-25T02:50:05;101179.91;;;8.58;36.81
50292;BME280;36190;54.980;73.388;2023-04-25T02:52:32;101181.59;;;8.69;36.60
50292;BME280;36190;54.980;73.388;2023-04-25T02:55:00;101180.38;;;8.73;36.53
50292;BME280;36190;54.980;73.388;2023-04-25T02:57:29;101176.44;;;8.77;36.29
50292;BME280;36190;54.980;73.388;2023-04-25T02:59:56;101178.44;;;8.85;36.27
50292;BME280;36190;54.980;73.388;2023-04-25T03:02:23;101171.44;;;8.94;36.25
50292;BME280;36190;54.980;73.388;2023-04-25T03:04:51;101165.84;;;8.97;36.06
50292;BME280;36190;54.980;73.388;2023-04-25T03:07:19;101174.25;;;9.02;35.88
50292;BME280;36190;54.980;73.388;2023-04-25T03:09:47;101174.69;;;9.07;35.90
50292;BME280;36190;54.980;73.388;2023-04-25T03:12:14;101174.81;;;9.16;35.86
50292;BME280;36190;54.980;73.388;2023-04-25T03:14:43;101176.25;;;9.20;35.75
50292;BME280;36190;54.980;73.388;2023-04-25T03:17:15;101176.06;;;9.21;35.62
50292;BME280;36190;54.980;73.388;2023-04-25T03:19:43;101172.84;;;9.18;35.83
50292;BME280;36190;54.980;73.388;2023-04-25T03:25:34;101177.47;;;9.16;35.73
50292;BME280;36190;54.980;73.388;2023-04-25T03:28:02;101177.91;;;9.11;35.77
50292;BME280;36190;54.980;73.388;2023-04-25T03:30:53;101171.88;;;9.19;35.68
50292;BME280;36190;54.980;73.388;2023-04-25T03:33:41;101175.53;;;9.28;35.73
50292;BME280;36190;54.980;73.388;2023-04-25T03:36:30;101177.78;;;9.42;35.71
50292;BME280;36190;54.980;73.388;2023-04-25T03:38:58;101178.72;;;9.51;35.59
50292;BME280;36190;54.980;73.388;2023-04-25T03:41:26;101182.94;;;9.63;35.66
50292;BME280;36190;54.980;73.388;2023-04-25T03:43:53;101169.16;;;9.78;35.36
50292;BME280;36190;54.980;73.388;2023-04-25T03:46:22;101180.63;;;9.88;35.37
50292;BME280;36190;54.980;73.388;2023-04-25T03:48:50;101165.16;;;10.02;35.34
50292;BME280;36190;54.980;73.388;2023-04-25T03:51:17;101172.00;;;10.14;35.09
50292;BME280;36190;54.980;73.388;2023-04-25T03:53:45;101167.84;;;10.30;34.89
50292;BME280;36190;54.980;73.388;2023-04-25T03:56:12;101159.53;;;10.43;34.56
50292;BME280;36190;54.980;73.388;2023-04-25T03:58:40;101163.00;;;10.53;34.66
50292;BME280;36190;54.980;73.388;2023-04-25T04:01:07;101154.44;;;10.50;34.43
50292;BME280;36190;54.980;73.388;2023-04-25T04:03:36;101157.88;;;10.42;34.37
50292;BME280;36190;54.980;73.388;2023-04-25T04:06:04;101159.94;;;10.48;34.57
50292;BME280;36190;54.980;73.388;2023-04-25T04:08:32;101168.41;;;10.62;34.13
50292;BME280;36190;54.980;73.388;2023-04-25T04:11:00;101157.00;;;10.69;33.98
50292;BME280;36190;54.980;73.388;2023-04-25T04:13:28;101156.97;;;10.79;33.85
50292;BME280;36190;54.980;73.388;2023-04-25T04:15:56;101154.19;;;10.89;33.70
50292;BME280;36190;54.980;73.388;2023-04-25T04:18:24;101148.94;;;10.97;33.72
50292;BME280;36190;54.980;73.388;2023-04-25T04:20:52;101158.25;;;11.11;33.41
50292;BME280;36190;54.980;73.388;2023-04-25T04:23:20;101153.91;;;11.28;33.28
50292;BME280;36190;54.980;73.388;2023-04-25T04:25:48;101154.69;;;11.47;32.98
50292;BME280;36190;54.980;73.388;2023-04-25T04:28:16;101149.41;;;11.55;32.89
50292;BME280;36190;54.980;73.388;2023-04-25T04:30:43;101140.88;;;11.52;32.82
50292;BME280;36190;54.980;73.388;2023-04-25T04:33:12;101145.34;;;11.43;32.76
50292;BME280;36190;54.980;73.388;2023-04-25T04:35:41;101145.28;;;11.35;32.92
50292;BME280;36190;54.980;73.388;2023-04-25T04:38:10;101132.38;;;11.30;32.71
50292;BME280;36190;54.980;73.388;2023-04-25T04:40:38;101127.78;;;11.40;32.50
50292;BME280;36190;54.980;73.388;2023-04-25T04:43:05;101116.34;;;11.56;32.16
50292;BME280;36190;54.980;73.388;2023-04-25T04:45:34;101108.22;;;11.66;31.92
50292;BME280;36190;54.980;73.388;2023-04-25T04:48:02;101100.09;;;11.76;31.57
50292;BME280;36190;54.980;73.388;2023-04-25T04:50:31;101103.19;;;11.90;31.64
50292;BME280;36190;54.980;73.388;2023-04-25T04:52:59;101092.22;;;12.01;31.43
50292;BME280;36190;54.980;73.388;2023-04-25T04:55:28;101092.94;;;12.12;31.09
50292;BME280;36190;54.980;73.388;2023-04-25T04:57:56;101103.56;;;12.30;30.98
50292;BME280;36190;54.980;73.388;2023-04-25T05:00:23;101098.75;;;12.50;30.99
50292;BME280;36190;54.980;73.388;2023-04-25T05:02:51;101094.75;;;12.71;30.84
50292;BME280;36190;54.980;73.388;2023-04-25T05:05:18;101107.88;;;12.90;30.61
50292;BME280;36190;54.980;73.388;2023-04-25T05:07:46;101093.13;;;13.03;30.65
50292;BME280;36190;54.980;73.388;2023-04-25T05:10:13;101091.78;;;13.15;30.44
50292;BME280;36190;54.980;73.388;2023-04-25T05:12:42;101097.47;;;13.37;30.29
50292;BME280;36190;54.980;73.388;2023-04-25T05:15:10;101099.16;;;13.55;30.29
50292;BME280;36190;54.980;73.388;2023-04-25T05:17:38;101088.41;;;13.63;30.24
50292;BME280;36190;54.980;73.388;2023-04-25T05:20:07;101109.19;;;13.61;30.42
50292;BME280;36190;54.980;73.388;2023-04-25T05:22:35;101094.59;;;13.64;30.51
50292;BME280;36190;54.980;73.388;2023-04-25T05:25:03;101092.09;;;13.70;30.68
50292;BME280;36190;54.980;73.388;2023-04-25T05:27:31;101098.25;;;13.71;30.60
50292;BME280;36190;54.980;73.388;2023-04-25T05:30:00;101098.13;;;13.64;30.97
50292;BME280;36190;54.980;73.388;2023-04-25T05:32:28;101094.28;;;13.67;31.11
50292;BME280;36190;54.980;73.388;2023-04-25T05:34:55;101091.56;;;13.75;31.25
50292;BME280;36190;54.980;73.388;2023-04-25T05:37:23;101080.81;;;13.83;31.39
50292;BME280;36190;54.980;73.388;2023-04-25T05:39:50;101086.81;;;13.94;31.91
50292;BME280;36190;54.980;73.388;2023-04-25T05:42:17;101079.56;;;14.02;32.06
50292;BME280;36190;54.980;73.388;2023-04-25T05:44:45;101064.81;;;13.98;32.12
50292;BME280;36190;54.980;73.388;2023-04-25T05:47:13;101090.63;;;13.99;32.21
50292;BME280;36190;54.980;73.388;2023-04-25T05:49:41;101094.84;;;13.94;32.43
50292;BME280;36190;54.980;73.388;2023-04-25T05:52:08;101064.22;;;13.80;32.99
50292;BME280;36190;54.980;73.388;2023-04-25T05:54:36;101067.91;;;13.87;33.14
50292;BME280;36190;54.980;73.388;2023-04-25T05:57:03;101072.06;;;13.98;33.45
50292;BME280;36190;54.980;73.388;2023-04-25T05:59:31;101082.41;;;14.01;33.59
50292;BME280;36190;54.980;73.388;2023-04-25T06:01:58;101061.56;;;14.11;33.67
50292;BME280;36190;54.980;73.388;2023-04-25T06:04:28;101062.63;;;14.34;33.76
50292;BME280;36190;54.980;73.388;2023-04-25T06:06:55;101051.13;;;14.48;33.58
50292;BME280;36190;54.980;73.388;2023-04-25T06:09:22;101067.59;;;14.68;33.57
50292;BME280;36190;54.980;73.388;2023-04-25T06:11:50;101060.00;;;14.80;33.59
50292;BME280;36190;54.980;73.388;2023-04-25T06:14:17;101074.94;;;14.83;33.87
50292;BME280;36190;54.980;73.388;2023-04-25T06:16:45;101067.78;;;14.67;34.29
50292;BME280;36190;54.980;73.388;2023-04-25T06:19:13;101052.47;;;14.52;34.93
50292;BME280;36190;54.980;73.388;2023-04-25T06:21:42;101052.78;;;14.49;35.03
50292;BME280;36190;54.980;73.388;2023-04-25T06:24:10;101055.19;;;14.44;35.03
50292;BME280;36190;54.980;73.388;2023-04-25T06:26:37;101045.31;;;14.36;35.35
50292;BME280;36190;54.980;73.388;2023-04-25T06:29:05;101037.66;;;14.33;35.61
50292;BME280;36190;54.980;73.388;2023-04-25T06:31:32;101032.06;;;14.43;35.70
50292;BME280;36190;54.980;73.388;2023-04-25T06:34:00;101037.31;;;14.60;35.55
50292;BME280;36190;54.980;73.388;2023-04-25T06:36:28;101045.31;;;14.68;35.73
50292;BME280;36190;54.980;73.388;2023-04-25T06:38:57;101063.25;;;14.67;35.81
50292;BME280;36190;54.980;73.388;2023-04-25T06:41:25;101047.84;;;14.61;36.13
50292;BME280;36190;54.980;73.388;2023-04-25T06:43:52;101027.81;;;14.49;36.40
50292;BME280;36190;54.980;73.388;2023-04-25T06:46:20;101034.19;;;14.48;36.40
50292;BME280;36190;54.980;73.388;2023-04-25T06:48:47;101023.94;;;14.51;36.48
50292;BME280;36190;54.980;73.388;2023-04-25T06:51:15;101023.56;;;14.54;36.69
50292;BME280;36190;54.980;73.388;2023-04-25T06:53:42;101017.50;;;14.61;37.25
50292;BME280;36190;54.980;73.388;2023-04-25T06:56:11;101019.00;;;14.63;37.67
50292;BME280;36190;54.980;73.388;2023-04-25T06:58:38;101015.94;;;14.66;37.84
50292;BME280;36190;54.980;73.388;2023-04-25T07:01:06;101015.38;;;14.71;37.97
50292;BME280;36190;54.980;73.388;2023-04-25T07:03:33;101003.28;;;14.75;38.07
50292;BME280;36190;54.980;73.388;2023-04-25T07:06:03;100987.28;;;14.82;38.03
50292;BME280;36190;54.980;73.388;2023-04-25T07:08:30;101008.50;;;14.92;38.16
50292;BME280;36190;54.980;73.388;2023-04-25T07:10:58;100975.53;;;14.98;38.14
50292;BME280;36190;54.980;73.388;2023-04-25T07:13:27;100990.69;;;15.14;38.38
50292;BME280;36190;54.980;73.388;2023-04-25T07:15:54;100986.16;;;15.30;38.18
50292;BME280;36190;54.980;73.388;2023-04-25T07:18:22;100995.97;;;15.37;38.25
50292;BME280;36190;54.980;73.388;2023-04-25T07:20:50;100990.69;;;15.44;38.15
50292;BME280;36190;54.980;73.388;2023-04-25T07:23:17;100974.72;;;15.58;38.00
50292;BME280;36190;54.980;73.388;2023-04-25T07:25:45;100980.94;;;15.73;37.93
50292;BME280;36190;54.980;73.388;2023-04-25T07:28:12;100980.88;;;15.88;37.75
50292;BME280;36190;54.980;73.388;2023-04-25T07:30:41;100988.13;;;16.03;37.66
50292;BME280;36190;54.980;73.388;2023-04-25T07:33:09;100986.97;;;16.12;37.59
50292;BME280;36190;54.980;73.388;2023-04-25T07:35:36;100969.03;;;16.19;37.65
50292;BME280;36190;54.980;73.388;2023-04-25T07:38:03;100975.34;;;16.27;37.68
50292;BME280;36190;54.980;73.388;2023-04-25T07:40:32;100967.72;;;16.30;37.58
50292;BME280;36190;54.980;73.388;2023-04-25T07:42:59;100965.28;;;16.35;37.57
50292;BME280;36190;54.980;73.388;2023-04-25T07:45:27;100969.50;;;16.45;37.43
50292;BME280;36190;54.980;73.388;2023-04-25T07:47:56;100976.66;;;16.59;37.35
50292;BME280;36190;54.980;73.388;2023-04-25T07:50:24;100944.41;;;16.66;37.17
50292;BME280;36190;54.980;73.388;2023-04-25T07:52:51;100949.06;;;16.79;37.00
50292;BME280;36190;54.980;73.388;2023-04-25T07:55:18;100983.97;;;16.94;37.02
50292;BME280;36190;54.980;73.388;2023-04-25T07:57:46;100949.06;;;17.08;36.91
50292;BME280;36190;54.980;73.388;2023-04-25T08:00:14;100962.25;;;17.24;36.58
50292;BME280;36190;54.980;73.388;2023-04-25T08:02:42;100951.75;;;17.43;36.21
50292;BME280;36190;54.980;73.388;2023-04-25T08:05:11;100959.50;;;17.59;35.93
50292;BME280;36190;54.980;73.388;2023-04-25T08:07:40;100952.53;;;17.85;35.63
50292;BME280;36190;54.980;73.388;2023-04-25T08:10:08;100965.44;;;17.97;35.47
50292;BME280;36190;54.980;73.388;2023-04-25T08:12:35;100941.59;;;18.00;35.33
50292;BME280;36190;54.980;73.388;2023-04-25T08:15:05;100957.72;;;17.87;35.48
50292;BME280;36190;54.980;73.388;2023-04-25T08:17:32;100949.38;;;17.68;35.81
50292;BME280;36190;54.980;73.388;2023-04-25T08:20:00;100944.31;;;17.52;36.09
50292;BME280;36190;54.980;73.388;2023-04-25T08:22:32;100939.75;;;17.52;36.17
50292;BME280;36190;54.980;73.388;2023-04-25T08:25:00;100934.78;;;17.56;35.97
50292;BME280;36190;54.980;73.388;2023-04-25T08:27:27;100950.97;;;17.56;36.01
50292;BME280;36190;54.980;73.388;2023-04-25T08:29:54;100931.69;;;17.59;35.99
50292;BME280;36190;54.980;73.388;2023-04-25T08:32:23;100925.56;;;17.92;35.61
50292;BME280;36190;54.980;73.388;2023-04-25T08:34:51;100940.19;;;18.25;34.94
50292;BME280;36190;54.980;73.388;2023-04-25T08:37:19;100943.91;;;18.24;35.01
50292;BME280;36190;54.980;73.388;2023-04-25T08:39:49;100924.41;;;18.49;34.84
50292;BME280;36190;54.980;73.388;2023-04-25T08:42:18;100921.28;;;18.79;34.29
50292;BME280;36190;54.980;73.388;2023-04-25T08:44:45;100932.91;;;19.06;33.92
50292;BME280;36190;54.980;73.388;2023-04-25T08:47:14;100943.22;;;19.30;33.26
50292;BME280;36190;54.980;73.388;2023-04-25T08:49:44;100926.56;;;19.40;33.07
50292;BME280;36190;54.980;73.388;2023-04-25T08:52:13;100905.47;;;19.55;33.07
50292;BME280;36190;54.980;73.388;2023-04-25T08:54:42;100920.59;;;20.09;32.21
50292;BME280;36190;54.980;73.388;2023-04-25T08:57:12;100929.56;;;20.34;31.59
50292;BME280;36190;54.980;73.388;2023-04-25T08:59:41;100923.88;;;20.43;31.60
50292;BME280;36190;54.980;73.388;2023-04-25T09:02:11;100919.78;;;20.59;31.08
50292;BME280;36190;54.980;73.388;2023-04-25T09:04:42;100919.28;;;20.69;30.91
50292;BME280;36190;54.980;73.388;2023-04-25T09:07:10;100920.16;;;20.88;30.58
50292;BME280;36190;54.980;73.388;2023-04-25T09:09:37;100921.63;;;21.09;30.29
50292;BME280;36190;54.980;73.388;2023-04-25T09:12:05;100918.13;;;21.21;30.05
50292;BME280;36190;54.980;73.388;2023-04-25T09:14:34;100913.84;;;21.32;29.81
50292;BME280;36190;54.980;73.388;2023-04-25T09:17:03;100913.16;;;21.36;29.64
50292;BME280;36190;54.980;73.388;2023-04-25T09:19:34;100901.66;;;21.53;29.31
50292;BME280;36190;54.980;73.388;2023-04-25T09:22:03;100917.50;;;21.56;29.21
50292;BME280;36190;54.980;73.388;2023-04-25T09:24:33;100912.84;;;21.44;29.42
50292;BME280;36190;54.980;73.388;2023-04-25T09:27:03;100930.06;;;21.38;29.64
50292;BME280;36190;54.980;73.388;2023-04-25T09:29:33;100929.81;;;21.40;29.40
50292;BME280;36190;54.980;73.388;2023-04-25T09:32:25;100921.13;;;21.50;29.01
50292;BME280;36190;54.980;73.388;2023-04-25T09:34:54;100927.06;;;21.77;28.78
50292;BME280;36190;54.980;73.388;2023-04-25T09:37:24;100925.25;;;22.02;28.43
50292;BME280;36190;54.980;73.388;2023-04-25T09:39:53;100922.59;;;21.83;27.96
50292;BME280;36190;54.980;73.388;2023-04-25T09:42:22;100928.50;;;21.80;28.29
50292;BME280;36190;54.980;73.388;2023-04-25T09:44:53;100919.75;;;21.78;28.39
50292;BME280;36190;54.980;73.388;2023-04-25T09:47:23;100917.44;;;21.93;28.13
50292;BME280;36190;54.980;73.388;2023-04-25T09:49:51;100920.47;;;21.85;28.11
50292;BME280;36190;54.980;73.388;2023-04-25T09:52:20;100918.78;;;21.53;28.56
50292;BME280;36190;54.980;73.388;2023-04-25T09:54:48;100923.94;;;21.43;28.66
50292;BME280;36190;54.980;73.388;2023-04-25T09:57:17;100913.28;;;21.60;28.38
50292;BME280;36190;54.980;73.388;2023-04-25T09:59:46;100910.47;;;21.67;28.42
50292;BME280;36190;54.980;73.388;2023-04-25T10:02:17;100916.16;;;21.28;28.66
50292;BME280;36190;54.980;73.388;2023-04-25T10:04:48;100922.16;;;20.74;29.28
50292;BME280;36190;54.980;73.388;2023-04-25T10:07:18;100913.78;;;20.31;29.76
50292;BME280;36190;54.980;73.388;2023-04-25T10:09:48;100897.28;;;20.08;30.20
50292;BME280;36190;54.980;73.388;2023-04-25T10:12:17;100900.75;;;20.15;30.38
50292;BME280;36190;54.980;73.388;2023-04-25T10:14:46;100904.69;;;20.19;30.27
50292;BME280;36190;54.980;73.388;2023-04-25T10:17:15;100913.16;;;20.29;30.16
50292;BME280;36190;54.980;73.388;2023-04-25T10:19:43;100902.19;;;20.68;29.79
50292;BME280;36190;54.980;73.388;2023-04-25T10:22:16;100904.44;;;20.97;29.32
50292;BME280;36190;54.980;73.388;2023-04-25T10:24:44;100896.50;;;21.33;29.04
50292;BME280;36190;54.980;73.388;2023-04-25T10:27:13;100892.41;;;21.91;28.57
50292;BME280;36190;54.980;73.388;2023-04-25T10:29:41;100906.91;;;22.51;27.82
50292;BME280;36190;54.980;73.388;2023-04-25T10:32:11;100902.69;;;22.79;27.31
50292;BME280;36190;54.980;73.388;2023-04-25T10:34:41;100920.41;;;23.06;26.96
50292;BME280;36190;54.980;73.388;2023-04-25T10:37:19;100893.16;;;23.18;26.61
50292;BME280;36190;54.980;73.388;2023-04-25T10:39:47;100881.97;;;23.43;26.65
50292;BME280;36190;54.980;73.388;2023-04-25T10:42:14;100892.41;;;23.93;26.24
50292;BME280;36190;54.980;73.388;2023-04-25T10:45:01;100884.84;;;24.29;25.77
50292;BME280;36190;54.980;73.388;2023-04-25T10:47:34;100884.44;;;24.20;25.60
50292;BME280;36190;54.980;73.388;2023-04-25T10:50:08;100867.91;;;23.63;26.08
50292;BME280;36190;54.980;73.388;2023-04-25T10:52:38;100888.38;;;23.25;26.55
50292;BME280;36190;54.980;73.388;2023-04-25T10:55:07;100885.56;;;23.20;26.53
50292;BME280;36190;54.980;73.388;2023-04-25T10:57:39;100894.84;;;23.48;25.92
50292;BME280;36190;54.980;73.388;2023-04-25T11:00:14;100888.53;;;23.59;25.71
50292;BME280;36190;54.980;73.388;2023-04-25T11:02:43;100894.19;;;23.29;25.78
50292;BME280;36190;54.980;73.388;2023-04-25T11:05:20;100908.84;;;22.63;26.20
50292;BME280;36190;54.980;73.388;2023-04-25T11:07:53;100899.81;;;21.84;26.90
50292;BME280;36190;54.980;73.388;2023-04-25T11:10:25;100895.06;;;21.49;27.71
50292;BME280;36190;54.980;73.388;2023-04-25T11:12:53;100870.38;;;21.01;28.22
50292;BME280;36190;54.980;73.388;2023-04-25T11:15:21;100867.88;;;21.18;28.20
50292;BME280;36190;54.980;73.388;2023-04-25T11:17:50;100873.25;;;21.86;27.64
50292;BME280;36190;54.980;73.388;2023-04-25T11:20:19;100876.66;;;22.60;26.75
50292;BME280;36190;54.980;73.388;2023-04-25T11:22:47;100866.97;;;23.17;26.24
50292;BME280;36190;54.980;73.388;2023-04-25T11:25:15;100866.44;;;23.73;25.65
50292;BME280;36190;54.980;73.388;2023-04-25T11:27:50;100868.03;;;24.54;24.99
50292;BME280;36190;54.980;73.388;2023-04-25T11:30:19;100887.66;;;25.13;24.29
50292;BME280;36190;54.980;73.388;2023-04-25T11:32:47;100869.31;;;25.31;24.17
50292;BME280;36190;54.980;73.388;2023-04-25T11:35:16;100866.28;;;25.54;23.73
50292;BME280;36190;54.980;73.388;2023-04-25T11:37:45;100878.34;;;25.86;23.46
50292;BME280;36190;54.980;73.388;2023-04-25T11:40:12;100870.16;;;25.86;23.42
50292;BME280;36190;54.980;73.388;2023-04-25T11:42:47;100873.34;;;26.05;22.78
50292;BME280;36190;54.980;73.388;2023-04-25T11:45:15;100868.09;;;26.31;22.90
50292;BME280;36190;54.980;73.388;2023-04-25T11:47:42;100872.59;;;26.53;22.77
50292;BME280;36190;54.980;73.388;2023-04-25T11:50:10;100867.97;;;26.59;22.43
50292;BME280;36190;54.980;73.388;2023-04-25T11:52:38;100862.72;;;26.52;22.19
50292;BME280;36190;54.980;73.388;2023-04-25T11:55:09;100864.97;;;26.60;21.99
50292;BME280;36190;54.980;73.388;2023-04-25T11:57:38;100877.00;;;26.54;21.89
50292;BME280;36190;54.980;73.388;2023-04-25T12:00:09;100861.84;;;25.48;22.42
50292;BME280;36190;54.980;73.388;2023-04-25T12:02:41;100876.56;;;24.24;23.55
50292;BME280;36190;54.980;73.388;2023-04-25T12:05:09;100867.75;;;23.70;24.06
50292;BME280;36190;54.980;73.388;2023-04-25T12:07:37;100854.94;;;24.34;23.91
50292;BME280;36190;54.980;73.388;2023-04-25T12:10:06;100864.41;;;25.33;23.14
50292;BME280;36190;54.980;73.388;2023-04-25T12:12:36;100862.63;;;26.31;22.47
50292;BME280;36190;54.980;73.388;2023-04-25T12:15:11;100860.53;;;27.02;21.36
50292;BME280;36190;54.980;73.388;2023-04-25T12:17:42;100861.19;;;27.30;21.05
50292;BME280;36190;54.980;73.388;2023-04-25T12:20:11;100857.69;;;27.56;20.66
50292;BME280;36190;54.980;73.388;2023-04-25T12:22:41;100867.84;;;27.71;20.73
50292;BME280;36190;54.980;73.388;2023-04-25T12:25:10;100865.38;;;27.75;20.77
50292;BME280;36190;54.980;73.388;2023-04-25T12:27:40;100871.41;;;27.61;20.23
50292;BME280;36190;54.980;73.388;2023-04-25T12:30:10;100869.97;;;27.43;20.46
50292;BME280;36190;54.980;73.388;2023-04-25T12:32:38;100860.97;;;27.58;20.25
50292;BME280;36190;54.980;73.388;2023-04-25T12:35:06;100857.19;;;27.59;20.58
50292;BME280;36190;54.980;73.388;2023-04-25T12:37:33;100865.94;;;27.71;20.37
50292;BME280;36190;54.980;73.388;2023-04-25T12:40:01;100857.72;;;27.97;19.97
50292;BME280;36190;54.980;73.388;2023-04-25T12:42:30;100853.88;;;27.98;19.89
50292;BME280;36190;54.980;73.388;2023-04-25T12:44:59;100860.72;;;28.17;19.73
50292;BME280;36190;54.980;73.388;2023-04-25T12:47:26;100862.13;;;28.35;19.48
50292;BME280;36190;54.980;73.388;2023-04-25T12:49:54;100851.94;;;28.35;19.61
50292;BME280;36190;54.980;73.388;2023-04-25T12:52:21;100847.00;;;28.42;19.44
50292;BME280;36190;54.980;73.388;2023-04-25T12:54:49;100854.97;;;28.49;19.21
50292;BME280;36190;54.980;73.388;2023-04-25T12:57:16;100851.13;;;28.35;19.45
50292;BME280;36190;54.980;73.388;2023-04-25T12:59:44;100851.69;;;28.11;19.37